sensor_id;sensor_type;location;lat;lon;timestamp;P1;durP1;ratioP1;P2;durP2;ratioP2
45676;SDS011;31390;51.186;6.830;2022-08-21T00:02:03;10.63;;;8.50;;
45676;SDS011;31390;51.186;6.830;2022-08-21T00:04:30;11.13;;;7.57;;
45676;SDS011;31390;51.186;6.830;2022-08-21T00:06:57;8.80;;;7.88;;
45676;SDS011;31390;51.186;6.830;2022-08-21T00:09:24;11.55;;;8.52;;
45676;SDS011;31390;51.186;6.830;2022-08-21T00:11:51;11.93;;;8.80;;
45676;SDS011;31390;51.186;6.830;2022-08-21T00:14:18;11.73;;;9.07;;
45676;SDS011;31390;51.186;6.830;2022-08-21T00:16:44;10.45;;;8.88;;
45676;SDS011;31390;51.186;6.830;2022-08-21T00:19:11;11.25;;;8.57;;
45676;SDS011;31390;51.186;6.830;2022-08-21T00:21:37;9.95;;;9.00;;
45676;SDS011;31390;51.186;6.830;2022-08-21T00:24:09;12.95;;;9.25;;
45676;SDS011;31390;51.186;6.830;2022-08-21T00:26:36;13.57;;;9.02;;
45676;SDS011;31390;51.186;6.830;2022-08-21T00:29:03;10.07;;;9.02;;
45676;SDS011;31390;51.186;6.830;2022-08-21T00:31:29;13.23;;;9.65;;
45676;SDS011;31390;51.186;6.830;2022-08-21T00:33:56;10.85;;;9.15;;
45676;SDS011;31390;51.186;6.830;2022-08-21T00:36:26;11.50;;;10.18;;
45676;SDS011;31390;51.186;6.830;2022-08-21T00:38:53;12.07;;;9.40;;
45676;SDS011;31390;51.186;6.830;2022-08-21T00:41:20;13.27;;;9.52;;
45676;SDS011;31390;51.186;6.830;2022-08-21T00:44:05;11.98;;;9.48;;
45676;SDS011;31390;51.186;6.830;2022-08-21T00:46:32;12.82;;;10.18;;
45676;SDS011;31390;51.186;6.830;2022-08-21T00:48:59;12.82;;;10.68;;
45676;SDS011;31390;51.186;6.830;2022-08-21T00:51:28;12.27;;;9.90;;
45676;SDS011;31390;51.186;6.830;2022-08-21T00:54:03;14.32;;;9.80;;
45676;SDS011;31390;51.186;6.830;2022-08-21T00:56:30;11.23;;;9.23;;
45676;SDS011;31390;51.186;6.830;2022-08-21T00:58:56;12.98;;;9.45;;
45676;SDS011;31390;51.186;6.830;2022-08-21T01:01:23;10.50;;;9.35;;
45676;SDS011;31390;51.186;6.830;2022-08-21T01:03:50;13.60;;;9.60;;
45676;SDS011;31390;51.186;6.830;2022-08-21T01:06:17;16.40;;;9.88;;
45676;SDS011;31390;51.186;6.830;2022-08-21T01:08:43;15.57;;;10.02;;
45676;SDS011;31390;51.186;6.830;2022-08-21T01:11:13;10.98;;;9.88;;
45676;SDS011;31390;51.186;6.830;2022-08-21T01:13:39;15.88;;;10.90;;
45676;SDS011;31390;51.186;6.830;2022-08-21T01:16:13;12.82;;;11.02;;
45676;SDS011;31390;51.186;6.830;2022-08-21T01:18:41;11.80;;;9.70;;
45676;SDS011;31390;51.186;6.830;2022-08-21T01:21:10;12.27;;;10.07;;
45676;SDS011;31390;51.186;6.830;2022-08-21T01:23:40;16.48;;;11.70;;
45676;SDS011;31390;51.186;6.830;2022-08-21T01:26:07;12.25;;;10.32;;
45676;SDS011;31390;51.186;6.830;2022-08-21T01:28:38;11.85;;;10.55;;
45676;SDS011;31390;51.186;6.830;2022-08-21T01:31:07;10.52;;;9.50;;
45676;SDS011;31390;51.186;6.830;2022-08-21T01:33:34;13.73;;;9.95;;
45676;SDS011;31390;51.186;6.830;2022-08-21T01:36:01;13.70;;;10.63;;
45676;SDS011;31390;51.186;6.830;2022-08-21T01:38:30;13.93;;;10.77;;
45676;SDS011;31390;51.186;6.830;2022-08-21T01:40:57;13.00;;;11.32;;
45676;SDS011;31390;51.186;6.830;2022-08-21T01:43:24;13.07;;;11.70;;
45676;SDS011;31390;51.186;6.830;2022-08-21T01:46:04;14.55;;;11.13;;
45676;SDS011;31390;51.186;6.830;2022-08-21T01:48:32;12.90;;;11.70;;
45676;SDS011;31390;51.186;6.830;2022-08-21T01:50:58;13.95;;;12.32;;
45676;SDS011;31390;51.186;6.830;2022-08-21T01:53:25;12.02;;;10.82;;
45676;SDS011;31390;51.186;6.830;2022-08-21T01:55:58;16.45;;;12.63;;
45676;SDS011;31390;51.186;6.830;2022-08-21T01:58:25;13.75;;;12.35;;
45676;SDS011;31390;51.186;6.830;2022-08-21T02:00:52;15.35;;;11.52;;
45676;SDS011;31390;51.186;6.830;2022-08-21T02:03:19;16.90;;;12.90;;
45676;SDS011;31390;51.186;6.830;2022-08-21T02:06:01;14.10;;;12.25;;
45676;SDS011;31390;51.186;6.830;2022-08-21T02:08:28;13.80;;;12.38;;
45676;SDS011;31390;51.186;6.830;2022-08-21T02:10:54;14.80;;;12.88;;
45676;SDS011;31390;51.186;6.830;2022-08-21T02:13:21;13.07;;;11.77;;
45676;SDS011;31390;51.186;6.830;2022-08-21T02:15:47;15.07;;;12.48;;
45676;SDS011;31390;51.186;6.830;2022-08-21T02:18:14;12.88;;;11.52;;
45676;SDS011;31390;51.186;6.830;2022-08-21T02:20:44;14.32;;;11.93;;
45676;SDS011;31390;51.186;6.830;2022-08-21T02:23:11;13.48;;;12.07;;
45676;SDS011;31390;51.186;6.830;2022-08-21T02:25:41;14.98;;;12.52;;
45676;SDS011;31390;51.186;6.830;2022-08-21T02:28:09;17.55;;;12.98;;
45676;SDS011;31390;51.186;6.830;2022-08-21T02:30:38;14.68;;;13.15;;
45676;SDS011;31390;51.186;6.830;2022-08-21T02:33:05;15.80;;;13.48;;
45676;SDS011;31390;51.186;6.830;2022-08-21T02:35:32;14.82;;;13.15;;
45676;SDS011;31390;51.186;6.830;2022-08-21T02:38:00;19.70;;;14.57;;
45676;SDS011;31390;51.186;6.830;2022-08-21T02:40:31;16.88;;;15.10;;
45676;SDS011;31390;51.186;6.830;2022-08-21T02:42:58;15.60;;;13.90;;
45676;SDS011;31390;51.186;6.830;2022-08-21T02:45:25;16.35;;;12.98;;
45676;SDS011;31390;51.186;6.830;2022-08-21T02:47:54;16.02;;;13.43;;
45676;SDS011;31390;51.186;6.830;2022-08-21T02:50:25;14.77;;;12.20;;
45676;SDS011;31390;51.186;6.830;2022-08-21T02:52:52;13.07;;;11.77;;
45676;SDS011;31390;51.186;6.830;2022-08-21T02:55:21;14.02;;;12.45;;
45676;SDS011;31390;51.186;6.830;2022-08-21T02:57:48;13.63;;;12.15;;
45676;SDS011;31390;51.186;6.830;2022-08-21T03:00:15;15.15;;;13.60;;
45676;SDS011;31390;51.186;6.830;2022-08-21T03:02:42;16.10;;;12.98;;
45676;SDS011;31390;51.186;6.830;2022-08-21T03:05:09;14.40;;;12.45;;
45676;SDS011;31390;51.186;6.830;2022-08-21T03:07:36;15.57;;;12.68;;
45676;SDS011;31390;51.186;6.830;2022-08-21T03:10:04;14.30;;;12.88;;
45676;SDS011;31390;51.186;6.830;2022-08-21T03:12:31;15.23;;;13.63;;
45676;SDS011;31390;51.186;6.830;2022-08-21T03:14:57;14.50;;;13.00;;
45676;SDS011;31390;51.186;6.830;2022-08-21T03:17:25;15.77;;;14.07;;
45676;SDS011;31390;51.186;6.830;2022-08-21T03:19:55;14.85;;;13.23;;
45676;SDS011;31390;51.186;6.830;2022-08-21T03:22:23;14.90;;;13.32;;
45676;SDS011;31390;51.186;6.830;2022-08-21T03:24:49;15.73;;;13.15;;
45676;SDS011;31390;51.186;6.830;2022-08-21T03:27:17;14.45;;;12.98;;
45676;SDS011;31390;51.186;6.830;2022-08-21T03:29:45;14.30;;;12.98;;
45676;SDS011;31390;51.186;6.830;2022-08-21T03:32:12;18.60;;;15.00;;
45676;SDS011;31390;51.186;6.830;2022-08-21T03:34:38;18.92;;;14.43;;
45676;SDS011;31390;51.186;6.830;2022-08-21T03:37:05;15.85;;;13.95;;
45676;SDS011;31390;51.186;6.830;2022-08-21T03:39:32;16.75;;;13.38;;
45676;SDS011;31390;51.186;6.830;2022-08-21T03:41:59;15.80;;;13.30;;
45676;SDS011;31390;51.186;6.830;2022-08-21T03:44:26;17.08;;;13.65;;
45676;SDS011;31390;51.186;6.830;2022-08-21T03:46:55;15.45;;;13.75;;
45676;SDS011;31390;51.186;6.830;2022-08-21T03:49:22;15.88;;;13.65;;
45676;SDS011;31390;51.186;6.830;2022-08-21T03:51:48;15.63;;;14.00;;
45676;SDS011;31390;51.186;6.830;2022-08-21T03:54:24;17.35;;;14.80;;
45676;SDS011;31390;51.186;6.830;2022-08-21T03:56:54;16.63;;;14.18;;
45676;SDS011;31390;51.186;6.830;2022-08-21T03:59:20;16.27;;;14.68;;
45676;SDS011;31390;51.186;6.830;2022-08-21T04:01:54;16.08;;;14.40;;
45676;SDS011;31390;51.186;6.830;2022-08-21T04:04:21;15.48;;;13.85;;
45676;SDS011;31390;51.186;6.830;2022-08-21T04:06:48;17.48;;;15.10;;
45676;SDS011;31390;51.186;6.830;2022-08-21T04:09:17;18.02;;;16.13;;
45676;SDS011;31390;51.186;6.830;2022-08-21T04:11:43;20.48;;;15.50;;
45676;SDS011;31390;51.186;6.830;2022-08-21T04:14:11;19.23;;;15.43;;
45676;SDS011;31390;51.186;6.830;2022-08-21T04:16:38;18.40;;;16.55;;
45676;SDS011;31390;51.186;6.830;2022-08-21T04:19:04;16.83;;;15.13;;
45676;SDS011;31390;51.186;6.830;2022-08-21T04:21:31;19.52;;;15.88;;
45676;SDS011;31390;51.186;6.830;2022-08-21T04:23:58;17.42;;;15.60;;
45676;SDS011;31390;51.186;6.830;2022-08-21T04:26:25;16.85;;;14.40;;
45676;SDS011;31390;51.186;6.830;2022-08-21T04:28:52;18.30;;;16.50;;
45676;SDS011;31390;51.186;6.830;2022-08-21T04:31:19;17.02;;;15.23;;
45676;SDS011;31390;51.186;6.830;2022-08-21T04:33:45;16.13;;;13.98;;
45676;SDS011;31390;51.186;6.830;2022-08-21T04:36:12;19.48;;;15.70;;
45676;SDS011;31390;51.186;6.830;2022-08-21T04:38:38;16.85;;;14.88;;
45676;SDS011;31390;51.186;6.830;2022-08-21T04:41:10;17.08;;;15.30;;
45676;SDS011;31390;51.186;6.830;2022-08-21T04:43:37;17.08;;;15.27;;
45676;SDS011;31390;51.186;6.830;2022-08-21T04:46:04;17.75;;;15.73;;
45676;SDS011;31390;51.186;6.830;2022-08-21T04:48:31;17.60;;;15.52;;
45676;SDS011;31390;51.186;6.830;2022-08-21T04:51:01;18.95;;;15.48;;
45676;SDS011;31390;51.186;6.830;2022-08-21T04:53:36;18.60;;;16.67;;
45676;SDS011;31390;51.186;6.830;2022-08-21T04:56:10;19.48;;;16.20;;
45676;SDS011;31390;51.186;6.830;2022-08-21T04:58:39;20.85;;;17.27;;
45676;SDS011;31390;51.186;6.830;2022-08-21T05:01:07;21.88;;;17.33;;
45676;SDS011;31390;51.186;6.830;2022-08-21T05:03:34;19.35;;;17.27;;
45676;SDS011;31390;51.186;6.830;2022-08-21T05:06:03;19.30;;;17.30;;
45676;SDS011;31390;51.186;6.830;2022-08-21T05:08:32;21.98;;;17.17;;
45676;SDS011;31390;51.186;6.830;2022-08-21T05:10:59;19.02;;;16.70;;
45676;SDS011;31390;51.186;6.830;2022-08-21T05:13:26;19.70;;;16.80;;
45676;SDS011;31390;51.186;6.830;2022-08-21T05:15:52;20.85;;;17.75;;
45676;SDS011;31390;51.186;6.830;2022-08-21T05:18:19;21.48;;;18.33;;
45676;SDS011;31390;51.186;6.830;2022-08-21T05:20:46;22.40;;;18.08;;
45676;SDS011;31390;51.186;6.830;2022-08-21T05:23:13;23.52;;;18.92;;
45676;SDS011;31390;51.186;6.830;2022-08-21T05:25:40;20.70;;;17.90;;
45676;SDS011;31390;51.186;6.830;2022-08-21T05:28:07;21.02;;;17.80;;
45676;SDS011;31390;51.186;6.830;2022-08-21T05:30:34;23.73;;;19.35;;
45676;SDS011;31390;51.186;6.830;2022-08-21T05:33:02;22.90;;;18.80;;
45676;SDS011;31390;51.186;6.830;2022-08-21T05:35:29;20.00;;;17.90;;
45676;SDS011;31390;51.186;6.830;2022-08-21T05:37:55;21.20;;;18.25;;
45676;SDS011;31390;51.186;6.830;2022-08-21T05:40:22;21.48;;;19.23;;
45676;SDS011;31390;51.186;6.830;2022-08-21T05:42:50;24.27;;;19.10;;
45676;SDS011;31390;51.186;6.830;2022-08-21T05:45:20;22.55;;;19.83;;
45676;SDS011;31390;51.186;6.830;2022-08-21T05:48:15;21.40;;;19.13;;
45676;SDS011;31390;51.186;6.830;2022-08-21T05:50:43;20.02;;;18.02;;
45676;SDS011;31390;51.186;6.830;2022-08-21T05:53:10;21.48;;;19.20;;
45676;SDS011;31390;51.186;6.830;2022-08-21T05:55:37;20.52;;;17.85;;
45676;SDS011;31390;51.186;6.830;2022-08-21T05:58:11;20.00;;;17.95;;
45676;SDS011;31390;51.186;6.830;2022-08-21T06:00:38;21.08;;;18.88;;
45676;SDS011;31390;51.186;6.830;2022-08-21T06:03:04;23.00;;;18.85;;
45676;SDS011;31390;51.186;6.830;2022-08-21T06:05:36;22.60;;;18.88;;
45676;SDS011;31390;51.186;6.830;2022-08-21T06:08:03;20.38;;;18.27;;
45676;SDS011;31390;51.186;6.830;2022-08-21T06:10:30;20.52;;;17.85;;
45676;SDS011;31390;51.186;6.830;2022-08-21T06:12:57;19.98;;;16.95;;
45676;SDS011;31390;51.186;6.830;2022-08-21T06:15:24;19.80;;;17.15;;
45676;SDS011;31390;51.186;6.830;2022-08-21T06:17:51;18.10;;;16.35;;
45676;SDS011;31390;51.186;6.830;2022-08-21T06:20:18;18.88;;;16.88;;
45676;SDS011;31390;51.186;6.830;2022-08-21T06:22:45;18.40;;;16.50;;
45676;SDS011;31390;51.186;6.830;2022-08-21T06:25:11;22.13;;;15.05;;
45676;SDS011;31390;51.186;6.830;2022-08-21T06:27:38;23.35;;;15.18;;
45676;SDS011;31390;51.186;6.830;2022-08-21T06:30:06;16.00;;;13.88;;
45676;SDS011;31390;51.186;6.830;2022-08-21T06:32:33;15.77;;;12.23;;
45676;SDS011;31390;51.186;6.830;2022-08-21T06:35:00;16.73;;;12.55;;
45676;SDS011;31390;51.186;6.830;2022-08-21T06:37:27;16.17;;;11.82;;
45676;SDS011;31390;51.186;6.830;2022-08-21T06:39:53;15.70;;;12.73;;
45676;SDS011;31390;51.186;6.830;2022-08-21T06:42:21;17.38;;;14.27;;
45676;SDS011;31390;51.186;6.830;2022-08-21T06:44:56;13.98;;;11.43;;
45676;SDS011;31390;51.186;6.830;2022-08-21T06:47:23;15.95;;;10.43;;
45676;SDS011;31390;51.186;6.830;2022-08-21T06:49:50;14.65;;;10.93;;
45676;SDS011;31390;51.186;6.830;2022-08-21T06:52:21;14.55;;;10.73;;
45676;SDS011;31390;51.186;6.830;2022-08-21T06:54:48;12.20;;;9.73;;
45676;SDS011;31390;51.186;6.830;2022-08-21T06:57:15;13.30;;;9.32;;
45676;SDS011;31390;51.186;6.830;2022-08-21T06:59:41;11.98;;;9.10;;
45676;SDS011;31390;51.186;6.830;2022-08-21T07:02:08;14.40;;;9.35;;
45676;SDS011;31390;51.186;6.830;2022-08-21T07:04:40;14.30;;;9.35;;
45676;SDS011;31390;51.186;6.830;2022-08-21T07:07:13;9.38;;;8.15;;
45676;SDS011;31390;51.186;6.830;2022-08-21T07:09:41;11.35;;;9.70;;
45676;SDS011;31390;51.186;6.830;2022-08-21T07:12:08;18.05;;;10.30;;
45676;SDS011;31390;51.186;6.830;2022-08-21T07:14:34;11.23;;;8.88;;
45676;SDS011;31390;51.186;6.830;2022-08-21T07:17:03;11.93;;;7.55;;
45676;SDS011;31390;51.186;6.830;2022-08-21T07:19:32;9.82;;;4.93;;
45676;SDS011;31390;51.186;6.830;2022-08-21T07:22:02;7.93;;;4.00;;
45676;SDS011;31390;51.186;6.830;2022-08-21T07:24:31;8.57;;;4.28;;
45676;SDS011;31390;51.186;6.830;2022-08-21T07:27:00;7.13;;;3.67;;
45676;SDS011;31390;51.186;6.830;2022-08-21T07:29:36;6.72;;;3.80;;
45676;SDS011;31390;51.186;6.830;2022-08-21T07:32:11;7.00;;;3.83;;
45676;SDS011;31390;51.186;6.830;2022-08-21T07:34:38;6.38;;;3.40;;
45676;SDS011;31390;51.186;6.830;2022-08-21T07:37:05;8.65;;;4.43;;
45676;SDS011;31390;51.186;6.830;2022-08-21T07:39:35;9.95;;;3.90;;
45676;SDS011;31390;51.186;6.830;2022-08-21T07:42:06;8.25;;;3.75;;
45676;SDS011;31390;51.186;6.830;2022-08-21T07:44:33;7.90;;;3.90;;
45676;SDS011;31390;51.186;6.830;2022-08-21T07:47:01;8.95;;;3.50;;
45676;SDS011;31390;51.186;6.830;2022-08-21T07:49:30;6.68;;;3.60;;
45676;SDS011;31390;51.186;6.830;2022-08-21T07:51:56;5.78;;;2.85;;
45676;SDS011;31390;51.186;6.830;2022-08-21T07:54:23;5.03;;;2.88;;
45676;SDS011;31390;51.186;6.830;2022-08-21T07:57:00;5.15;;;2.60;;
45676;SDS011;31390;51.186;6.830;2022-08-21T07:59:27;6.90;;;2.90;;
45676;SDS011;31390;51.186;6.830;2022-08-21T08:01:55;7.10;;;2.80;;
45676;SDS011;31390;51.186;6.830;2022-08-21T08:04:22;8.02;;;2.75;;
45676;SDS011;31390;51.186;6.830;2022-08-21T08:06:52;8.02;;;2.88;;
45676;SDS011;31390;51.186;6.830;2022-08-21T08:09:19;6.95;;;2.28;;
45676;SDS011;31390;51.186;6.830;2022-08-21T08:11:48;7.50;;;2.60;;
45676;SDS011;31390;51.186;6.830;2022-08-21T08:14:16;6.53;;;2.28;;
45676;SDS011;31390;51.186;6.830;2022-08-21T08:16:51;4.07;;;2.15;;
45676;SDS011;31390;51.186;6.830;2022-08-21T08:19:29;4.03;;;2.10;;
45676;SDS011;31390;51.186;6.830;2022-08-21T08:21:57;5.60;;;2.58;;
45676;SDS011;31390;51.186;6.830;2022-08-21T08:24:24;5.85;;;2.28;;
45676;SDS011;31390;51.186;6.830;2022-08-21T08:26:50;4.22;;;2.25;;
45676;SDS011;31390;51.186;6.830;2022-08-21T08:29:20;4.55;;;2.08;;
45676;SDS011;31390;51.186;6.830;2022-08-21T08:31:47;4.93;;;2.53;;
45676;SDS011;31390;51.186;6.830;2022-08-21T08:34:13;6.18;;;2.45;;
45676;SDS011;31390;51.186;6.830;2022-08-21T08:36:50;6.63;;;2.17;;
45676;SDS011;31390;51.186;6.830;2022-08-21T08:39:17;3.65;;;2.10;;
45676;SDS011;31390;51.186;6.830;2022-08-21T08:41:57;6.03;;;2.53;;
45676;SDS011;31390;51.186;6.830;2022-08-21T08:44:26;3.60;;;1.90;;
45676;SDS011;31390;51.186;6.830;2022-08-21T08:46:55;4.35;;;1.80;;
45676;SDS011;31390;51.186;6.830;2022-08-21T08:49:24;4.97;;;2.00;;
45676;SDS011;31390;51.186;6.830;2022-08-21T08:51:55;4.68;;;1.60;;
45676;SDS011;31390;51.186;6.830;2022-08-21T08:54:31;6.15;;;1.77;;
45676;SDS011;31390;51.186;6.830;2022-08-21T08:57:00;3.13;;;1.42;;
45676;SDS011;31390;51.186;6.830;2022-08-21T08:59:37;4.43;;;1.50;;
45676;SDS011;31390;51.186;6.830;2022-08-21T09:02:05;3.10;;;1.85;;
45676;SDS011;31390;51.186;6.830;2022-08-21T09:04:34;4.72;;;1.38;;
45676;SDS011;31390;51.186;6.830;2022-08-21T09:09:38;3.15;;;1.50;;
45676;SDS011;31390;51.186;6.830;2022-08-21T09:15:10;3.40;;;1.20;;
45676;SDS011;31390;51.186;6.830;2022-08-21T09:20:18;2.72;;;1.02;;
45676;SDS011;31390;51.186;6.830;2022-08-21T09:25:20;2.67;;;1.23;;
45676;SDS011;31390;51.186;6.830;2022-08-21T09:27:49;4.13;;;1.40;;
45676;SDS011;31390;51.186;6.830;2022-08-21T09:30:17;3.63;;;1.50;;
45676;SDS011;31390;51.186;6.830;2022-08-21T09:32:45;6.97;;;1.80;;
45676;SDS011;31390;51.186;6.830;2022-08-21T09:35:16;3.10;;;1.10;;
45676;SDS011;31390;51.186;6.830;2022-08-21T09:37:56;5.95;;;1.95;;
45676;SDS011;31390;51.186;6.830;2022-08-21T09:40:42;3.10;;;1.50;;
45676;SDS011;31390;51.186;6.830;2022-08-21T09:45:35;3.67;;;2.10;;
45676;SDS011;31390;51.186;6.830;2022-08-21T09:50:35;5.18;;;1.58;;
45676;SDS011;31390;51.186;6.830;2022-08-21T09:53:01;4.05;;;1.88;;
45676;SDS011;31390;51.186;6.830;2022-08-21T09:55:31;2.75;;;1.77;;
45676;SDS011;31390;51.186;6.830;2022-08-21T09:58:16;10.73;;;2.08;;
45676;SDS011;31390;51.186;6.830;2022-08-21T10:00:43;2.42;;;1.50;;
45676;SDS011;31390;51.186;6.830;2022-08-21T10:03:18;4.28;;;1.90;;
45676;SDS011;31390;51.186;6.830;2022-08-21T10:05:58;4.38;;;1.77;;
45676;SDS011;31390;51.186;6.830;2022-08-21T10:08:26;4.43;;;1.70;;
45676;SDS011;31390;51.186;6.830;2022-08-21T10:11:01;3.80;;;1.65;;
45676;SDS011;31390;51.186;6.830;2022-08-21T10:18:40;4.75;;;1.48;;
45676;SDS011;31390;51.186;6.830;2022-08-21T10:23:44;5.38;;;2.17;;
45676;SDS011;31390;51.186;6.830;2022-08-21T10:31:21;4.85;;;1.80;;
45676;SDS011;31390;51.186;6.830;2022-08-21T10:33:54;3.50;;;1.80;;
45676;SDS011;31390;51.186;6.830;2022-08-21T10:36:33;3.42;;;1.80;;
45676;SDS011;31390;51.186;6.830;2022-08-21T10:42:12;3.67;;;1.60;;
45676;SDS011;31390;51.186;6.830;2022-08-21T10:47:21;5.53;;;1.70;;
45676;SDS011;31390;51.186;6.830;2022-08-21T10:50:01;4.07;;;1.50;;
45676;SDS011;31390;51.186;6.830;2022-08-21T10:52:41;5.82;;;1.70;;
45676;SDS011;31390;51.186;6.830;2022-08-21T10:55:12;3.45;;;1.63;;
45676;SDS011;31390;51.186;6.830;2022-08-21T10:57:46;3.58;;;1.55;;
45676;SDS011;31390;51.186;6.830;2022-08-21T11:00:17;3.95;;;1.73;;
45676;SDS011;31390;51.186;6.830;2022-08-21T11:05:29;3.30;;;1.80;;
45676;SDS011;31390;51.186;6.830;2022-08-21T11:10:59;3.42;;;1.42;;
45676;SDS011;31390;51.186;6.830;2022-08-21T11:18:50;3.72;;;1.80;;
45676;SDS011;31390;51.186;6.830;2022-08-21T11:23:47;4.82;;;1.40;;
45676;SDS011;31390;51.186;6.830;2022-08-21T11:26:17;2.53;;;1.45;;
45676;SDS011;31390;51.186;6.830;2022-08-21T11:28:54;4.32;;;1.70;;
45676;SDS011;31390;51.186;6.830;2022-08-21T11:34:07;4.32;;;1.33;;
45676;SDS011;31390;51.186;6.830;2022-08-21T11:39:18;9.15;;;1.58;;
45676;SDS011;31390;51.186;6.830;2022-08-21T11:42:01;2.70;;;1.42;;
45676;SDS011;31390;51.186;6.830;2022-08-21T11:50:33;4.32;;;1.33;;
45676;SDS011;31390;51.186;6.830;2022-08-21T11:53:07;3.95;;;1.33;;
45676;SDS011;31390;51.186;6.830;2022-08-21T11:55:46;4.38;;;1.75;;
45676;SDS011;31390;51.186;6.830;2022-08-21T12:03:28;4.32;;;1.50;;
45676;SDS011;31390;51.186;6.830;2022-08-21T12:06:06;3.35;;;1.40;;
45676;SDS011;31390;51.186;6.830;2022-08-21T12:08:38;3.60;;;1.60;;
45676;SDS011;31390;51.186;6.830;2022-08-21T12:13:34;4.72;;;1.45;;
45676;SDS011;31390;51.186;6.830;2022-08-21T12:16:08;2.53;;;1.13;;
45676;SDS011;31390;51.186;6.830;2022-08-21T12:18:35;4.25;;;1.38;;
45676;SDS011;31390;51.186;6.830;2022-08-21T12:23:49;1.35;;;1.23;;
45676;SDS011;31390;51.186;6.830;2022-08-21T12:28:49;3.85;;;1.42;;
45676;SDS011;31390;51.186;6.830;2022-08-21T12:31:20;3.10;;;1.50;;
45676;SDS011;31390;51.186;6.830;2022-08-21T12:33:51;2.58;;;1.45;;
45676;SDS011;31390;51.186;6.830;2022-08-21T12:36:19;3.08;;;1.40;;
45676;SDS011;31390;51.186;6.830;2022-08-21T12:38:49;5.47;;;2.00;;
45676;SDS011;31390;51.186;6.830;2022-08-21T12:42:01;4.82;;;1.42;;
45676;SDS011;31390;51.186;6.830;2022-08-21T12:44:09;4.30;;;1.45;;
45676;SDS011;31390;51.186;6.830;2022-08-21T12:46:39;4.45;;;1.52;;
45676;SDS011;31390;51.186;6.830;2022-08-21T12:49:13;3.15;;;1.33;;
45676;SDS011;31390;51.186;6.830;2022-08-21T12:51:55;3.42;;;1.30;;
45676;SDS011;31390;51.186;6.830;2022-08-21T12:54:26;3.85;;;1.40;;
45676;SDS011;31390;51.186;6.830;2022-08-21T12:57:01;4.55;;;1.50;;
45676;SDS011;31390;51.186;6.830;2022-08-21T12:59:29;4.55;;;1.90;;
45676;SDS011;31390;51.186;6.830;2022-08-21T13:01:59;2.95;;;1.00;;
45676;SDS011;31390;51.186;6.830;2022-08-21T13:04:36;2.72;;;1.42;;
45676;SDS011;31390;51.186;6.830;2022-08-21T13:07:09;2.75;;;1.27;;
45676;SDS011;31390;51.186;6.830;2022-08-21T13:09:50;3.75;;;1.20;;
45676;SDS011;31390;51.186;6.830;2022-08-21T13:12:21;4.90;;;1.40;;
45676;SDS011;31390;51.186;6.830;2022-08-21T13:15:00;2.50;;;1.00;;
45676;SDS011;31390;51.186;6.830;2022-08-21T13:17:30;2.10;;;1.30;;
45676;SDS011;31390;51.186;6.830;2022-08-21T13:19:59;2.88;;;1.23;;
45676;SDS011;31390;51.186;6.830;2022-08-21T13:22:26;3.83;;;1.40;;
45676;SDS011;31390;51.186;6.830;2022-08-21T13:24:59;2.03;;;1.15;;
45676;SDS011;31390;51.186;6.830;2022-08-21T13:27:32;1.92;;;1.05;;
45676;SDS011;31390;51.186;6.830;2022-08-21T13:30:10;3.72;;;1.27;;
45676;SDS011;31390;51.186;6.830;2022-08-21T13:32:41;2.88;;;1.33;;
45676;SDS011;31390;51.186;6.830;2022-08-21T13:35:12;2.13;;;1.10;;
45676;SDS011;31390;51.186;6.830;2022-08-21T13:37:42;2.13;;;1.00;;
45676;SDS011;31390;51.186;6.830;2022-08-21T13:40:12;1.77;;;0.80;;
45676;SDS011;31390;51.186;6.830;2022-08-21T13:42:42;1.63;;;0.90;;
45676;SDS011;31390;51.186;6.830;2022-08-21T13:45:13;2.72;;;1.10;;
45676;SDS011;31390;51.186;6.830;2022-08-21T13:47:42;2.47;;;0.90;;
45676;SDS011;31390;51.186;6.830;2022-08-21T13:50:10;4.90;;;1.30;;
45676;SDS011;31390;51.186;6.830;2022-08-21T13:52:46;3.63;;;1.10;;
45676;SDS011;31390;51.186;6.830;2022-08-21T13:55:15;2.22;;;1.08;;
45676;SDS011;31390;51.186;6.830;2022-08-21T13:57:42;2.25;;;1.05;;
45676;SDS011;31390;51.186;6.830;2022-08-21T14:00:10;8.40;;;1.40;;
45676;SDS011;31390;51.186;6.830;2022-08-21T14:02:40;2.55;;;1.27;;
45676;SDS011;31390;51.186;6.830;2022-08-21T14:05:13;3.60;;;1.23;;
45676;SDS011;31390;51.186;6.830;2022-08-21T14:07:42;3.03;;;0.95;;
45676;SDS011;31390;51.186;6.830;2022-08-21T14:10:15;2.05;;;1.17;;
45676;SDS011;31390;51.186;6.830;2022-08-21T14:12:51;10.43;;;1.63;;
45676;SDS011;31390;51.186;6.830;2022-08-21T14:15:26;4.28;;;1.35;;
45676;SDS011;31390;51.186;6.830;2022-08-21T14:17:55;2.60;;;1.20;;
45676;SDS011;31390;51.186;6.830;2022-08-21T14:20:35;2.55;;;1.30;;
45676;SDS011;31390;51.186;6.830;2022-08-21T14:23:02;3.25;;;1.35;;
45676;SDS011;31390;51.186;6.830;2022-08-21T14:25:36;3.90;;;1.65;;
45676;SDS011;31390;51.186;6.830;2022-08-21T14:28:18;4.03;;;1.13;;
45676;SDS011;31390;51.186;6.830;2022-08-21T14:30:52;2.72;;;1.27;;
45676;SDS011;31390;51.186;6.830;2022-08-21T14:33:26;3.13;;;1.08;;
45676;SDS011;31390;51.186;6.830;2022-08-21T14:35:53;5.00;;;1.70;;
45676;SDS011;31390;51.186;6.830;2022-08-21T14:38:21;2.28;;;1.10;;
45676;SDS011;31390;51.186;6.830;2022-08-21T14:40:49;2.03;;;1.25;;
45676;SDS011;31390;51.186;6.830;2022-08-21T14:43:16;2.70;;;1.15;;
45676;SDS011;31390;51.186;6.830;2022-08-21T14:45:43;4.07;;;1.55;;
45676;SDS011;31390;51.186;6.830;2022-08-21T14:48:10;4.00;;;1.50;;
45676;SDS011;31390;51.186;6.830;2022-08-21T14:50:37;3.40;;;1.45;;
45676;SDS011;31390;51.186;6.830;2022-08-21T14:53:04;2.50;;;1.15;;
45676;SDS011;31390;51.186;6.830;2022-08-21T14:55:37;2.60;;;1.08;;
45676;SDS011;31390;51.186;6.830;2022-08-21T14:58:22;2.95;;;1.33;;
45676;SDS011;31390;51.186;6.830;2022-08-21T15:00:49;3.58;;;1.17;;
45676;SDS011;31390;51.186;6.830;2022-08-21T15:03:16;1.98;;;1.02;;
45676;SDS011;31390;51.186;6.830;2022-08-21T15:05:43;2.13;;;0.82;;
45676;SDS011;31390;51.186;6.830;2022-08-21T15:08:11;3.00;;;1.30;;
45676;SDS011;31390;51.186;6.830;2022-08-21T15:10:37;2.42;;;1.20;;
45676;SDS011;31390;51.186;6.830;2022-08-21T15:13:24;1.70;;;1.00;;
45676;SDS011;31390;51.186;6.830;2022-08-21T15:15:51;4.78;;;1.23;;
45676;SDS011;31390;51.186;6.830;2022-08-21T15:18:19;2.83;;;1.15;;
45676;SDS011;31390;51.186;6.830;2022-08-21T15:20:47;3.80;;;1.52;;
45676;SDS011;31390;51.186;6.830;2022-08-21T15:23:14;2.60;;;1.30;;
45676;SDS011;31390;51.186;6.830;2022-08-21T15:25:42;2.22;;;1.27;;
45676;SDS011;31390;51.186;6.830;2022-08-21T15:28:09;2.28;;;1.52;;
45676;SDS011;31390;51.186;6.830;2022-08-21T15:30:37;3.30;;;1.30;;
45676;SDS011;31390;51.186;6.830;2022-08-21T15:33:04;3.60;;;1.50;;
45676;SDS011;31390;51.186;6.830;2022-08-21T15:35:31;1.48;;;1.00;;
45676;SDS011;31390;51.186;6.830;2022-08-21T15:37:57;3.92;;;1.20;;
45676;SDS011;31390;51.186;6.830;2022-08-21T15:40:24;2.70;;;1.20;;
45676;SDS011;31390;51.186;6.830;2022-08-21T15:42:52;6.65;;;1.50;;
45676;SDS011;31390;51.186;6.830;2022-08-21T15:45:22;4.43;;;1.42;;
45676;SDS011;31390;51.186;6.830;2022-08-21T15:47:48;3.95;;;1.25;;
45676;SDS011;31390;51.186;6.830;2022-08-21T15:50:16;4.72;;;1.30;;
45676;SDS011;31390;51.186;6.830;2022-08-21T15:52:42;3.47;;;1.40;;
45676;SDS011;31390;51.186;6.830;2022-08-21T15:55:10;1.38;;;0.88;;
45676;SDS011;31390;51.186;6.830;2022-08-21T15:57:37;3.42;;;1.23;;
45676;SDS011;31390;51.186;6.830;2022-08-21T16:00:06;3.50;;;1.17;;
45676;SDS011;31390;51.186;6.830;2022-08-21T16:02:39;3.30;;;1.40;;